sensor_id;sensor_type;location;lat;lon;timestamp;temperature;humidity
11132;DHT22;5620;53.570;9.718;2022-09-21T00:01:24;9.30;1.00
11132;DHT22;5620;53.570;9.718;2022-09-21T00:03:56;9.30;1.00
11132;DHT22;5620;53.570;9.718;2022-09-21T00:06:26;9.30;1.00
11132;DHT22;5620;53.570;9.718;2022-09-21T00:08:55;9.30;1.00
11132;DHT22;5620;53.570;9.718;2022-09-21T00:11:27;9.20;2.10
11132;DHT22;5620;53.570;9.718;2022-09-21T00:14:01;9.20;32.30
11132;DHT22;5620;53.570;9.718;2022-09-21T00:16:29;9.20;75.70
11132;DHT22;5620;53.570;9.718;2022-09-21T00:18:55;9.10;92.70
11132;DHT22;5620;53.570;9.718;2022-09-21T00:21:22;9.20;98.00
11132;DHT22;5620;53.570;9.718;2022-09-21T00:23:49;9.10;99.90
11132;DHT22;5620;53.570;9.718;2022-09-21T00:26:21;9.10;99.90
11132;DHT22;5620;53.570;9.718;2022-09-21T00:28:52;9.10;99.90
11132;DHT22;5620;53.570;9.718;2022-09-21T00:31:19;9.10;99.90
11132;DHT22;5620;53.570;9.718;2022-09-21T00:33:46;9.10;99.90
11132;DHT22;5620;53.570;9.718;2022-09-21T00:36:15;9.00;99.90
11132;DHT22;5620;53.570;9.718;2022-09-21T00:38:48;9.00;99.90
11132;DHT22;5620;53.570;9.718;2022-09-21T00:41:16;9.00;99.90
11132;DHT22;5620;53.570;9.718;2022-09-21T00:47:00;8.90;99.90
11132;DHT22;5620;53.570;9.718;2022-09-21T00:49:28;8.90;99.90
11132;DHT22;5620;53.570;9.718;2022-09-21T00:51:58;8.90;99.90
11132;DHT22;5620;53.570;9.718;2022-09-21T00:54:30;8.90;99.90
11132;DHT22;5620;53.570;9.718;2022-09-21T00:57:00;8.80;99.90
11132;DHT22;5620;53.570;9.718;2022-09-21T00:59:26;8.80;99.90
11132;DHT22;5620;53.570;9.718;2022-09-21T01:01:52;8.80;99.90
11132;DHT22;5620;53.570;9.718;2022-09-21T01:04:21;8.80;99.90
11132;DHT22;5620;53.570;9.718;2022-09-21T01:06:48;8.80;99.90
11132;DHT22;5620;53.570;9.718;2022-09-21T01:09:17;8.80;1.00
11132;DHT22;5620;53.570;9.718;2022-09-21T01:15:39;8.70;1.00
11132;DHT22;5620;53.570;9.718;2022-09-21T01:18:45;8.70;1.00
11132;DHT22;5620;53.570;9.718;2022-09-21T01:21:33;8.70;1.00
11132;DHT22;5620;53.570;9.718;2022-09-21T01:30:04;8.60;1.00
11132;DHT22;5620;53.570;9.718;2022-09-21T01:32:41;8.60;1.00
11132;DHT22;5620;53.570;9.718;2022-09-21T01:35:27;8.60;1.00
11132;DHT22;5620;53.570;9.718;2022-09-21T01:38:01;8.60;1.00
11132;DHT22;5620;53.570;9.718;2022-09-21T01:40:32;8.60;1.00
11132;DHT22;5620;53.570;9.718;2022-09-21T01:43:04;8.60;1.00
11132;DHT22;5620;53.570;9.718;2022-09-21T01:45:43;8.60;1.00
11132;DHT22;5620;53.570;9.718;2022-09-21T01:48:12;8.70;1.00
11132;DHT22;5620;53.570;9.718;2022-09-21T01:50:44;8.70;1.00
11132;DHT22;5620;53.570;9.718;2022-09-21T01:57:01;8.60;56.50
11132;DHT22;5620;53.570;9.718;2022-09-21T01:59:26;8.60;65.00
11132;DHT22;5620;53.570;9.718;2022-09-21T02:02:18;8.60;64.10
11132;DHT22;5620;53.570;9.718;2022-09-21T02:04:46;8.60;69.30
11132;DHT22;5620;53.570;9.718;2022-09-21T02:07:16;8.60;74.90
11132;DHT22;5620;53.570;9.718;2022-09-21T02:09:44;8.60;99.90
11132;DHT22;5620;53.570;9.718;2022-09-21T02:12:11;8.60;99.90
11132;DHT22;5620;53.570;9.718;2022-09-21T02:14:39;8.60;99.90
11132;DHT22;5620;53.570;9.718;2022-09-21T02:20:29;8.50;99.90
11132;DHT22;5620;53.570;9.718;2022-09-21T02:23:44;8.50;99.90
11132;DHT22;5620;53.570;9.718;2022-09-21T02:29:30;8.50;99.90
11132;DHT22;5620;53.570;9.718;2022-09-21T02:34:52;8.40;99.90
11132;DHT22;5620;53.570;9.718;2022-09-21T02:37:46;8.40;99.90
11132;DHT22;5620;53.570;9.718;2022-09-21T02:40:35;8.30;99.90
11132;DHT22;5620;53.570;9.718;2022-09-21T02:43:22;8.30;99.90
11132;DHT22;5620;53.570;9.718;2022-09-21T02:46:01;8.30;99.90
11132;DHT22;5620;53.570;9.718;2022-09-21T02:48:45;8.30;99.90
11132;DHT22;5620;53.570;9.718;2022-09-21T02:51:32;8.30;99.90
11132;DHT22;5620;53.570;9.718;2022-09-21T02:54:03;8.30;99.90
11132;DHT22;5620;53.570;9.718;2022-09-21T02:56:33;8.20;99.90
11132;DHT22;5620;53.570;9.718;2022-09-21T02:59:02;8.20;99.90
11132;DHT22;5620;53.570;9.718;2022-09-21T03:01:29;8.20;1.00
11132;DHT22;5620;53.570;9.718;2022-09-21T03:03:59;8.20;1.00
11132;DHT22;5620;53.570;9.718;2022-09-21T03:06:26;8.20;1.00
11132;DHT22;5620;53.570;9.718;2022-09-21T03:08:54;8.20;1.00
11132;DHT22;5620;53.570;9.718;2022-09-21T03:11:21;8.20;1.00
11132;DHT22;5620;53.570;9.718;2022-09-21T03:13:48;8.20;1.00
11132;DHT22;5620;53.570;9.718;2022-09-21T03:16:14;8.20;1.00
11132;DHT22;5620;53.570;9.718;2022-09-21T03:18:41;8.20;1.00
11132;DHT22;5620;53.570;9.718;2022-09-21T03:21:09;8.30;1.00
11132;DHT22;5620;53.570;9.718;2022-09-21T03:23:38;8.30;1.00
11132;DHT22;5620;53.570;9.718;2022-09-21T03:26:06;8.30;1.00
11132;DHT22;5620;53.570;9.718;2022-09-21T03:28:34;8.30;1.00
11132;DHT22;5620;53.570;9.718;2022-09-21T03:31:03;8.30;1.00
11132;DHT22;5620;53.570;9.718;2022-09-21T03:33:29;8.20;1.00
11132;DHT22;5620;53.570;9.718;2022-09-21T03:36:00;8.20;1.00
11132;DHT22;5620;53.570;9.718;2022-09-21T03:38:25;8.20;1.00
11132;DHT22;5620;53.570;9.718;2022-09-21T03:40:52;8.10;1.00
11132;DHT22;5620;53.570;9.718;2022-09-21T03:43:19;8.00;1.00
11132;DHT22;5620;53.570;9.718;2022-09-21T03:45:51;8.10;1.00
11132;DHT22;5620;53.570;9.718;2022-09-21T03:48:18;8.10;1.00
11132;DHT22;5620;53.570;9.718;2022-09-21T03:50:45;8.10;55.50
11132;DHT22;5620;53.570;9.718;2022-09-21T03:53:12;8.20;99.90
11132;DHT22;5620;53.570;9.718;2022-09-21T03:55:40;8.30;99.90
11132;DHT22;5620;53.570;9.718;2022-09-21T03:58:07;8.40;99.90
11132;DHT22;5620;53.570;9.718;2022-09-21T04:00:36;8.50;99.90
11132;DHT22;5620;53.570;9.718;2022-09-21T04:03:04;8.60;96.50
11132;DHT22;5620;53.570;9.718;2022-09-21T04:05:32;8.70;30.00
11132;DHT22;5620;53.570;9.718;2022-09-21T04:07:58;8.80;1.00
11132;DHT22;5620;53.570;9.718;2022-09-21T04:10:25;8.90;1.00
11132;DHT22;5620;53.570;9.718;2022-09-21T04:12:56;9.00;1.00
11132;DHT22;5620;53.570;9.718;2022-09-21T04:15:23;9.10;1.00
11132;DHT22;5620;53.570;9.718;2022-09-21T04:17:52;9.20;1.00
11132;DHT22;5620;53.570;9.718;2022-09-21T04:20:20;9.20;1.00
11132;DHT22;5620;53.570;9.718;2022-09-21T04:22:47;9.30;1.00
11132;DHT22;5620;53.570;9.718;2022-09-21T04:25:16;9.40;1.00
11132;DHT22;5620;53.570;9.718;2022-09-21T04:27:44;9.40;1.00
11132;DHT22;5620;53.570;9.718;2022-09-21T04:30:14;9.50;1.00
11132;DHT22;5620;53.570;9.718;2022-09-21T04:32:41;9.60;1.00
11132;DHT22;5620;53.570;9.718;2022-09-21T04:35:10;9.70;1.00
11132;DHT22;5620;53.570;9.718;2022-09-21T04:37:39;9.80;1.70
11132;DHT22;5620;53.570;9.718;2022-09-21T04:40:05;9.90;1.00
11132;DHT22;5620;53.570;9.718;2022-09-21T04:42:34;10.00;1.00
11132;DHT22;5620;53.570;9.718;2022-09-21T04:45:02;10.10;1.00
11132;DHT22;5620;53.570;9.718;2022-09-21T04:47:30;10.20;1.00
11132;DHT22;5620;53.570;9.718;2022-09-21T04:49:57;10.30;1.00
11132;DHT22;5620;53.570;9.718;2022-09-21T04:52:24;10.40;1.00
11132;DHT22;5620;53.570;9.718;2022-09-21T04:54:51;10.40;1.00
11132;DHT22;5620;53.570;9.718;2022-09-21T04:57:17;10.40;1.00
11132;DHT22;5620;53.570;9.718;2022-09-21T04:59:43;10.40;1.00
11132;DHT22;5620;53.570;9.718;2022-09-21T05:02:10;10.40;1.00
11132;DHT22;5620;53.570;9.718;2022-09-21T05:04:36;10.40;1.00
11132;DHT22;5620;53.570;9.718;2022-09-21T05:07:04;10.40;1.00
11132;DHT22;5620;53.570;9.718;2022-09-21T05:09:31;10.40;1.00
11132;DHT22;5620;53.570;9.718;2022-09-21T05:11:59;10.30;1.00
11132;DHT22;5620;53.570;9.718;2022-09-21T05:14:27;10.30;1.00
11132;DHT22;5620;53.570;9.718;2022-09-21T05:16:52;10.30;1.00
11132;DHT22;5620;53.570;9.718;2022-09-21T05:19:19;10.30;1.00
11132;DHT22;5620;53.570;9.718;2022-09-21T05:21:46;10.20;1.00
11132;DHT22;5620;53.570;9.718;2022-09-21T05:24:14;10.10;99.90
11132;DHT22;5620;53.570;9.718;2022-09-21T05:26:42;10.00;99.90
11132;DHT22;5620;53.570;9.718;2022-09-21T05:29:10;9.80;99.90
11132;DHT22;5620;53.570;9.718;2022-09-21T05:31:52;9.70;1.00
11132;DHT22;5620;53.570;9.718;2022-09-21T05:40:16;9.40;1.00
11132;DHT22;5620;53.570;9.718;2022-09-21T05:42:43;9.40;1.00
11132;DHT22;5620;53.570;9.718;2022-09-21T05:45:19;9.40;1.00
11132;DHT22;5620;53.570;9.718;2022-09-21T05:53:49;9.70;1.00
11132;DHT22;5620;53.570;9.718;2022-09-21T06:05:16;9.90;99.90
11132;DHT22;5620;53.570;9.718;2022-09-21T06:07:43;10.00;99.90
11132;DHT22;5620;53.570;9.718;2022-09-21T06:10:12;10.00;98.30
11132;DHT22;5620;53.570;9.718;2022-09-21T06:12:40;10.10;80.60
11132;DHT22;5620;53.570;9.718;2022-09-21T06:15:14;10.10;1.00
11132;DHT22;5620;53.570;9.718;2022-09-21T06:17:41;10.10;1.00
11132;DHT22;5620;53.570;9.718;2022-09-21T06:20:09;10.10;1.00
11132;DHT22;5620;53.570;9.718;2022-09-21T06:22:35;10.00;1.00
11132;DHT22;5620;53.570;9.718;2022-09-21T06:25:03;10.00;11.20
11132;DHT22;5620;53.570;9.718;2022-09-21T06:27:28;10.00;97.70
11132;DHT22;5620;53.570;9.718;2022-09-21T06:29:55;10.10;82.00
11132;DHT22;5620;53.570;9.718;2022-09-21T06:32:24;10.10;99.90
11132;DHT22;5620;53.570;9.718;2022-09-21T06:34:52;10.30;27.70
11132;DHT22;5620;53.570;9.718;2022-09-21T06:37:18;10.30;1.00
11132;DHT22;5620;53.570;9.718;2022-09-21T06:39:45;10.40;1.00
11132;DHT22;5620;53.570;9.718;2022-09-21T06:42:12;10.40;1.00
11132;DHT22;5620;53.570;9.718;2022-09-21T06:44:39;10.50;1.00
11132;DHT22;5620;53.570;9.718;2022-09-21T06:47:05;10.60;1.00
11132;DHT22;5620;53.570;9.718;2022-09-21T06:49:31;10.70;1.00
11132;DHT22;5620;53.570;9.718;2022-09-21T06:51:58;10.70;99.90
11132;DHT22;5620;53.570;9.718;2022-09-21T06:54:25;10.70;1.00
11132;DHT22;5620;53.570;9.718;2022-09-21T06:56:53;10.80;99.90
11132;DHT22;5620;53.570;9.718;2022-09-21T06:59:21;10.80;99.90
11132;DHT22;5620;53.570;9.718;2022-09-21T07:01:47;10.90;99.90
11132;DHT22;5620;53.570;9.718;2022-09-21T07:04:15;11.00;99.90
11132;DHT22;5620;53.570;9.718;2022-09-21T07:06:43;11.10;99.90
11132;DHT22;5620;53.570;9.718;2022-09-21T07:09:11;11.20;99.90
11132;DHT22;5620;53.570;9.718;2022-09-21T07:11:40;11.30;99.90
11132;DHT22;5620;53.570;9.718;2022-09-21T07:14:05;11.50;99.90
11132;DHT22;5620;53.570;9.718;2022-09-21T07:16:33;11.60;99.90
11132;DHT22;5620;53.570;9.718;2022-09-21T07:18:59;11.90;1.00
11132;DHT22;5620;53.570;9.718;2022-09-21T07:21:27;12.20;1.00
11132;DHT22;5620;53.570;9.718;2022-09-21T07:23:57;12.60;99.90
11132;DHT22;5620;53.570;9.718;2022-09-21T07:26:24;12.90;97.50
11132;DHT22;5620;53.570;9.718;2022-09-21T07:28:52;13.20;1.00
11132;DHT22;5620;53.570;9.718;2022-09-21T07:31:20;13.40;1.00
11132;DHT22;5620;53.570;9.718;2022-09-21T07:33:47;13.60;99.90
11132;DHT22;5620;53.570;9.718;2022-09-21T07:36:14;13.80;99.90
11132;DHT22;5620;53.570;9.718;2022-09-21T07:38:43;13.90;62.50
11132;DHT22;5620;53.570;9.718;2022-09-21T07:41:12;14.10;1.00
11132;DHT22;5620;53.570;9.718;2022-09-21T07:43:39;14.20;1.00
11132;DHT22;5620;53.570;9.718;2022-09-21T07:46:07;14.30;1.00
11132;DHT22;5620;53.570;9.718;2022-09-21T07:48:37;14.40;1.00
11132;DHT22;5620;53.570;9.718;2022-09-21T07:51:07;14.60;99.90
11132;DHT22;5620;53.570;9.718;2022-09-21T07:53:35;14.80;99.90
11132;DHT22;5620;53.570;9.718;2022-09-21T07:56:04;15.00;99.90
11132;DHT22;5620;53.570;9.718;2022-09-21T07:58:30;15.20;1.00
11132;DHT22;5620;53.570;9.718;2022-09-21T08:00:58;15.30;1.00
11132;DHT22;5620;53.570;9.718;2022-09-21T08:03:29;15.50;1.00
11132;DHT22;5620;53.570;9.718;2022-09-21T08:05:58;15.80;1.00
11132;DHT22;5620;53.570;9.718;2022-09-21T08:08:25;16.00;99.90
11132;DHT22;5620;53.570;9.718;2022-09-21T08:10:51;16.20;99.90
11132;DHT22;5620;53.570;9.718;2022-09-21T08:13:20;16.30;99.90
11132;DHT22;5620;53.570;9.718;2022-09-21T08:15:56;16.30;64.50
11132;DHT22;5620;53.570;9.718;2022-09-21T08:18:24;16.40;54.10
11132;DHT22;5620;53.570;9.718;2022-09-21T08:20:56;16.50;1.00
11132;DHT22;5620;53.570;9.718;2022-09-21T08:23:32;16.50;1.00
11132;DHT22;5620;53.570;9.718;2022-09-21T08:26:01;16.50;1.00
11132;DHT22;5620;53.570;9.718;2022-09-21T08:28:29;16.50;1.00
11132;DHT22;5620;53.570;9.718;2022-09-21T08:31:00;16.40;1.00
11132;DHT22;5620;53.570;9.718;2022-09-21T08:33:27;16.20;1.00
11132;DHT22;5620;53.570;9.718;2022-09-21T08:36:14;16.00;1.00
11132;DHT22;5620;53.570;9.718;2022-09-21T08:38:41;15.80;1.00
11132;DHT22;5620;53.570;9.718;2022-09-21T08:44:47;15.30;1.00
11132;DHT22;5620;53.570;9.718;2022-09-21T08:47:32;15.00;1.00
11132;DHT22;5620;53.570;9.718;2022-09-21T08:50:11;14.80;1.00
11132;DHT22;5620;53.570;9.718;2022-09-21T08:52:39;14.60;1.00
11132;DHT22;5620;53.570;9.718;2022-09-21T08:55:32;14.50;1.00
11132;DHT22;5620;53.570;9.718;2022-09-21T08:57:59;14.40;1.00
11132;DHT22;5620;53.570;9.718;2022-09-21T09:00:28;14.40;1.00
11132;DHT22;5620;53.570;9.718;2022-09-21T09:03:41;14.30;24.80
11132;DHT22;5620;53.570;9.718;2022-09-21T09:09:18;14.30;99.90
11132;DHT22;5620;53.570;9.718;2022-09-21T09:20:45;14.60;99.90
11132;DHT22;5620;53.570;9.718;2022-09-21T09:23:36;14.70;99.90
11132;DHT22;5620;53.570;9.718;2022-09-21T09:26:48;14.70;99.90
11132;DHT22;5620;53.570;9.718;2022-09-21T09:29:43;14.90;99.90
11132;DHT22;5620;53.570;9.718;2022-09-21T09:32:14;15.00;99.90
11132;DHT22;5620;53.570;9.718;2022-09-21T09:35:06;15.00;99.90
11132;DHT22;5620;53.570;9.718;2022-09-21T09:37:32;15.10;99.90
11132;DHT22;5620;53.570;9.718;2022-09-21T09:40:03;15.10;99.90
11132;DHT22;5620;53.570;9.718;2022-09-21T09:46:10;15.40;99.90
11132;DHT22;5620;53.570;9.718;2022-09-21T09:49:04;15.60;99.90
11132;DHT22;5620;53.570;9.718;2022-09-21T09:51:32;15.90;99.90
11132;DHT22;5620;53.570;9.718;2022-09-21T09:54:00;16.10;57.60
11132;DHT22;5620;53.570;9.718;2022-09-21T09:56:30;16.40;1.00
11132;DHT22;5620;53.570;9.718;2022-09-21T09:58:59;16.60;1.00
11132;DHT22;5620;53.570;9.718;2022-09-21T10:02:00;16.80;1.00
11132;DHT22;5620;53.570;9.718;2022-09-21T10:04:27;16.90;99.90
11132;DHT22;5620;53.570;9.718;2022-09-21T10:06:53;17.10;99.90
11132;DHT22;5620;53.570;9.718;2022-09-21T10:09:32;17.20;99.90
11132;DHT22;5620;53.570;9.718;2022-09-21T10:12:23;17.40;99.90
11132;DHT22;5620;53.570;9.718;2022-09-21T10:14:52;17.70;99.90
11132;DHT22;5620;53.570;9.718;2022-09-21T10:17:22;17.80;99.90
11132;DHT22;5620;53.570;9.718;2022-09-21T10:20:00;17.90;67.70
11132;DHT22;5620;53.570;9.718;2022-09-21T10:22:30;18.00;1.00
11132;DHT22;5620;53.570;9.718;2022-09-21T10:24:57;18.20;1.00
11132;DHT22;5620;53.570;9.718;2022-09-21T10:27:34;18.30;1.00
11132;DHT22;5620;53.570;9.718;2022-09-21T10:30:01;18.50;1.00
11132;DHT22;5620;53.570;9.718;2022-09-21T10:32:29;18.70;1.00
11132;DHT22;5620;53.570;9.718;2022-09-21T10:37:41;19.00;1.00
11132;DHT22;5620;53.570;9.718;2022-09-21T10:42:48;19.90;99.90
11132;DHT22;5620;53.570;9.718;2022-09-21T10:45:35;20.30;99.90
11132;DHT22;5620;53.570;9.718;2022-09-21T10:48:19;20.90;99.90
11132;DHT22;5620;53.570;9.718;2022-09-21T10:50:50;22.00;99.90
11132;DHT22;5620;53.570;9.718;2022-09-21T10:53:26;23.20;99.90
11132;DHT22;5620;53.570;9.718;2022-09-21T10:58:31;25.60;1.00
11132;DHT22;5620;53.570;9.718;2022-09-21T11:01:22;27.00;1.00
11132;DHT22;5620;53.570;9.718;2022-09-21T11:07:03;31.20;1.00
11132;DHT22;5620;53.570;9.718;2022-09-21T11:09:37;32.90;1.00
11132;DHT22;5620;53.570;9.718;2022-09-21T11:21:16;36.90;1.00
11132;DHT22;5620;53.570;9.718;2022-09-21T11:26:52;37.20;1.00
11132;DHT22;5620;53.570;9.718;2022-09-21T11:32:28;38.60;1.00
11132;DHT22;5620;53.570;9.718;2022-09-21T11:38:21;39.20;99.90
11132;DHT22;5620;53.570;9.718;2022-09-21T11:47:14;40.80;99.90
11132;DHT22;5620;53.570;9.718;2022-09-21T11:55:39;41.70;99.90
11132;DHT22;5620;53.570;9.718;2022-09-21T12:12:56;41.70;99.90
11132;DHT22;5620;53.570;9.718;2022-09-21T12:21:19;40.60;99.90
11132;DHT22;5620;53.570;9.718;2022-09-21T12:23:55;40.40;99.90
11132;DHT22;5620;53.570;9.718;2022-09-21T12:26:47;39.10;99.90
11132;DHT22;5620;53.570;9.718;2022-09-21T12:36:01;39.00;99.90
11132;DHT22;5620;53.570;9.718;2022-09-21T12:46:20;39.90;99.90
11132;DHT22;5620;53.570;9.718;2022-09-21T12:48:46;40.30;99.90
11132;DHT22;5620;53.570;9.718;2022-09-21T12:57:22;40.80;99.90
11132;DHT22;5620;53.570;9.718;2022-09-21T13:00:09;40.70;99.90
11132;DHT22;5620;53.570;9.718;2022-09-21T13:03:24;41.00;99.90
11132;DHT22;5620;53.570;9.718;2022-09-21T13:08:35;41.80;99.90
11132;DHT22;5620;53.570;9.718;2022-09-21T13:11:08;41.80;99.90
11132;DHT22;5620;53.570;9.718;2022-09-21T13:13:56;41.60;99.90
11132;DHT22;5620;53.570;9.718;2022-09-21T13:16:37;41.50;99.90
11132;DHT22;5620;53.570;9.718;2022-09-21T13:19:20;41.50;99.90
11132;DHT22;5620;53.570;9.718;2022-09-21T13:22:10;41.50;99.90
11132;DHT22;5620;53.570;9.718;2022-09-21T13:24:40;41.40;99.90
11132;DHT22;5620;53.570;9.718;2022-09-21T13:27:17;41.30;99.90
11132;DHT22;5620;53.570;9.718;2022-09-21T13:29:44;41.10;99.90
11132;DHT22;5620;53.570;9.718;2022-09-21T13:41:24;41.60;99.90
11132;DHT22;5620;53.570;9.718;2022-09-21T13:44:01;42.30;99.90
11132;DHT22;5620;53.570;9.718;2022-09-21T13:46:49;42.60;99.90
11132;DHT22;5620;53.570;9.718;2022-09-21T13:55:35;43.30;99.90
11132;DHT22;5620;53.570;9.718;2022-09-21T13:58:25;43.70;99.90
11132;DHT22;5620;53.570;9.718;2022-09-21T14:01:04;43.70;99.90
11132;DHT22;5620;53.570;9.718;2022-09-21T14:03:38;43.90;99.90
11132;DHT22;5620;53.570;9.718;2022-09-21T14:06:41;43.90;99.90
11132;DHT22;5620;53.570;9.718;2022-09-21T14:09:23;43.90;99.90
11132;DHT22;5620;53.570;9.718;2022-09-21T14:12:03;44.30;99.90
11132;DHT22;5620;53.570;9.718;2022-09-21T14:14:35;44.60;99.90
11132;DHT22;5620;53.570;9.718;2022-09-21T14:17:36;44.80;99.90
11132;DHT22;5620;53.570;9.718;2022-09-21T14:28:38;45.90;99.90
11132;DHT22;5620;53.570;9.718;2022-09-21T14:31:18;45.90;99.90
11132;DHT22;5620;53.570;9.718;2022-09-21T14:33:59;45.80;99.90
11132;DHT22;5620;53.570;9.718;2022-09-21T14:36:43;46.00;99.90
11132;DHT22;5620;53.570;9.718;2022-09-21T14:39:30;46.20;99.90
11132;DHT22;5620;53.570;9.718;2022-09-21T14:42:14;46.00;99.90
11132;DHT22;5620;53.570;9.718;2022-09-21T14:44:51;45.00;99.90
11132;DHT22;5620;53.570;9.718;2022-09-21T14:56:28;45.00;99.90
11132;DHT22;5620;53.570;9.718;2022-09-21T15:18:40;46.40;99.90
11132;DHT22;5620;53.570;9.718;2022-09-21T15:21:27;46.40;99.90
11132;DHT22;5620;53.570;9.718;2022-09-21T15:23:56;46.00;99.90
11132;DHT22;5620;53.570;9.718;2022-09-21T15:26:32;46.00;99.90
11132;DHT22;5620;53.570;9.718;2022-09-21T15:29:03;45.70;99.90
11132;DHT22;5620;53.570;9.718;2022-09-21T15:31:42;45.40;99.90
11132;DHT22;5620;53.570;9.718;2022-09-21T15:34:09;45.20;99.90
11132;DHT22;5620;53.570;9.718;2022-09-21T15:36:40;44.90;99.90
11132;DHT22;5620;53.570;9.718;2022-09-21T15:39:28;45.00;99.90
11132;DHT22;5620;53.570;9.718;2022-09-21T15:44:48;44.60;99.90
11132;DHT22;5620;53.570;9.718;2022-09-21T15:47:21;41.90;1.00
11132;DHT22;5620;53.570;9.718;2022-09-21T15:49:47;37.90;1.00
11132;DHT22;5620;53.570;9.718;2022-09-21T15:55:16;31.80;1.00
11132;DHT22;5620;53.570;9.718;2022-09-21T15:57:48;29.50;1.00
11132;DHT22;5620;53.570;9.718;2022-09-21T16:00:17;28.00;1.00
11132;DHT22;5620;53.570;9.718;2022-09-21T16:03:21;26.70;1.00
11132;DHT22;5620;53.570;9.718;2022-09-21T16:08:52;24.70;1.00
11132;DHT22;5620;53.570;9.718;2022-09-21T16:11:32;23.90;1.00
11132;DHT22;5620;53.570;9.718;2022-09-21T16:14:10;23.30;1.00
11132;DHT22;5620;53.570;9.718;2022-09-21T16:23:02;21.70;1.00
11132;DHT22;5620;53.570;9.718;2022-09-21T16:25:34;21.20;1.00
11132;DHT22;5620;53.570;9.718;2022-09-21T16:28:05;20.80;1.00
11132;DHT22;5620;53.570;9.718;2022-09-21T16:30:47;20.40;1.00
11132;DHT22;5620;53.570;9.718;2022-09-21T16:36:33;19.70;1.00
11132;DHT22;5620;53.570;9.718;2022-09-21T16:39:01;19.50;1.00
11132;DHT22;5620;53.570;9.718;2022-09-21T16:41:34;19.30;1.00
11132;DHT22;5620;53.570;9.718;2022-09-21T16:44:10;19.10;1.00
11132;DHT22;5620;53.570;9.718;2022-09-21T16:46:37;18.90;1.00
11132;DHT22;5620;53.570;9.718;2022-09-21T16:49:03;18.80;1.00
11132;DHT22;5620;53.570;9.718;2022-09-21T16:51:30;18.60;1.00
11132;DHT22;5620;53.570;9.718;2022-09-21T16:53:57;18.40;1.00
11132;DHT22;5620;53.570;9.718;2022-09-21T16:56:24;18.20;1.00
11132;DHT22;5620;53.570;9.718;2022-09-21T16:58:49;18.00;1.00
11132;DHT22;5620;53.570;9.718;2022-09-21T17:01:17;17.90;1.00
11132;DHT22;5620;53.570;9.718;2022-09-21T17:03:47;17.70;1.00
11132;DHT22;5620;53.570;9.718;2022-09-21T17:06:17;17.50;1.00
11132;DHT22;5620;53.570;9.718;2022-09-21T17:08:46;17.40;1.00
11132;DHT22;5620;53.570;9.718;2022-09-21T17:11:23;17.20;1.00
11132;DHT22;5620;53.570;9.718;2022-09-21T17:13:49;17.00;1.00
11132;DHT22;5620;53.570;9.718;2022-09-21T17:16:17;16.70;1.00
11132;DHT22;5620;53.570;9.718;2022-09-21T17:18:49;16.50;1.00
11132;DHT22;5620;53.570;9.718;2022-09-21T17:21:16;16.30;1.00
11132;DHT22;5620;53.570;9.718;2022-09-21T17:23:43;16.20;1.00
11132;DHT22;5620;53.570;9.718;2022-09-21T17:26:15;16.00;1.00
11132;DHT22;5620;53.570;9.718;2022-09-21T17:28:42;15.80;1.00
11132;DHT22;5620;53.570;9.718;2022-09-21T17:31:11;15.60;1.00
11132;DHT22;5620;53.570;9.718;2022-09-21T17:33:39;15.40;1.00
11132;DHT22;5620;53.570;9.718;2022-09-21T17:36:05;15.30;1.00
11132;DHT22;5620;53.570;9.718;2022-09-21T17:38:31;15.20;1.00
11132;DHT22;5620;53.570;9.718;2022-09-21T17:40:58;15.00;1.00
11132;DHT22;5620;53.570;9.718;2022-09-21T17:43:39;14.90;1.00
11132;DHT22;5620;53.570;9.718;2022-09-21T17:46:25;14.80;1.00
11132;DHT22;5620;53.570;9.718;2022-09-21T17:48:53;14.70;1.00
11132;DHT22;5620;53.570;9.718;2022-09-21T17:51:20;14.60;1.00
11132;DHT22;5620;53.570;9.718;2022-09-21T17:53:48;14.50;1.00
11132;DHT22;5620;53.570;9.718;2022-09-21T17:59:00;14.40;1.00
11132;DHT22;5620;53.570;9.718;2022-09-21T18:01:45;14.40;1.00
11132;DHT22;5620;53.570;9.718;2022-09-21T18:04:11;14.30;1.00
11132;DHT22;5620;53.570;9.718;2022-09-21T18:06:40;14.20;1.00
11132;DHT22;5620;53.570;9.718;2022-09-21T18:09:06;14.10;1.00
11132;DHT22;5620;53.570;9.718;2022-09-21T18:11:58;14.10;1.00
11132;DHT22;5620;53.570;9.718;2022-09-21T18:23:28;13.70;1.00
11132;DHT22;5620;53.570;9.718;2022-09-21T18:25:58;13.70;1.00
11132;DHT22;5620;53.570;9.718;2022-09-21T18:28:47;13.60;1.00
11132;DHT22;5620;53.570;9.718;2022-09-21T18:34:18;13.40;1.00
11132;DHT22;5620;53.570;9.718;2022-09-21T18:46:00;13.10;31.20
11132;DHT22;5620;53.570;9.718;2022-09-21T18:48:54;13.00;52.00
11132;DHT22;5620;53.570;9.718;2022-09-21T18:51:45;12.90;78.70
11132;DHT22;5620;53.570;9.718;2022-09-21T18:54:20;12.90;87.10
11132;DHT22;5620;53.570;9.718;2022-09-21T18:56:49;12.80;95.40
11132;DHT22;5620;53.570;9.718;2022-09-21T18:59:16;12.70;99.90
11132;DHT22;5620;53.570;9.718;2022-09-21T19:01:44;12.70;99.90
11132;DHT22;5620;53.570;9.718;2022-09-21T19:04:10;12.60;99.90
11132;DHT22;5620;53.570;9.718;2022-09-21T19:07:19;12.60;99.90
11132;DHT22;5620;53.570;9.718;2022-09-21T19:13:30;12.50;99.90
11132;DHT22;5620;53.570;9.718;2022-09-21T19:16:14;12.50;99.90
11132;DHT22;5620;53.570;9.718;2022-09-21T19:21:50;12.40;99.90
11132;DHT22;5620;53.570;9.718;2022-09-21T19:27:51;12.30;99.90
11132;DHT22;5620;53.570;9.718;2022-09-21T19:30:22;12.20;99.90
11132;DHT22;5620;53.570;9.718;2022-09-21T19:32:53;12.20;99.90
11132;DHT22;5620;53.570;9.718;2022-09-21T19:35:32;12.10;99.90
11132;DHT22;5620;53.570;9.718;2022-09-21T19:38:01;12.10;99.90
11132;DHT22;5620;53.570;9.718;2022-09-21T19:40:34;12.10;99.90
11132;DHT22;5620;53.570;9.718;2022-09-21T19:46:34;12.00;1.00
11132;DHT22;5620;53.570;9.718;2022-09-21T19:49:29;11.90;1.00
11132;DHT22;5620;53.570;9.718;2022-09-21T19:51:58;11.90;1.00
11132;DHT22;5620;53.570;9.718;2022-09-21T19:54:29;11.90;1.00
11132;DHT22;5620;53.570;9.718;2022-09-21T19:56:58;11.80;1.00
11132;DHT22;5620;53.570;9.718;2022-09-21T19:59:24;11.80;1.00
11132;DHT22;5620;53.570;9.718;2022-09-21T20:02:03;11.80;1.00
11132;DHT22;5620;53.570;9.718;2022-09-21T20:04:53;11.70;1.00
11132;DHT22;5620;53.570;9.718;2022-09-21T20:07:48;11.70;1.00
11132;DHT22;5620;53.570;9.718;2022-09-21T20:16:28;11.60;1.00
11132;DHT22;5620;53.570;9.718;2022-09-21T20:22:16;11.50;1.00
11132;DHT22;5620;53.570;9.718;2022-09-21T20:25:13;11.40;1.00
11132;DHT22;5620;53.570;9.718;2022-09-21T20:27:51;11.40;1.00
11132;DHT22;5620;53.570;9.718;2022-09-21T20:30:40;11.40;1.00
11132;DHT22;5620;53.570;9.718;2022-09-21T20:33:13;11.30;1.00
11132;DHT22;5620;53.570;9.718;2022-09-21T20:35:42;11.30;1.00
11132;DHT22;5620;53.570;9.718;2022-09-21T20:38:13;11.30;9.90
11132;DHT22;5620;53.570;9.718;2022-09-21T20:40:39;11.30;30.70
11132;DHT22;5620;53.570;9.718;2022-09-21T20:43:08;11.20;61.00
11132;DHT22;5620;53.570;9.718;2022-09-21T20:45:35;11.20;81.30
11132;DHT22;5620;53.570;9.718;2022-09-21T20:48:02;11.20;95.40
11132;DHT22;5620;53.570;9.718;2022-09-21T20:50:31;11.20;99.90
11132;DHT22;5620;53.570;9.718;2022-09-21T20:52:57;11.20;99.90
11132;DHT22;5620;53.570;9.718;2022-09-21T20:55:24;11.20;99.90
11132;DHT22;5620;53.570;9.718;2022-09-21T20:57:50;11.20;99.90
11132;DHT22;5620;53.570;9.718;2022-09-21T21:00:25;11.10;99.90
11132;DHT22;5620;53.570;9.718;2022-09-21T21:02:52;11.10;99.90